Stations météo

Publicité
Mont Aigoual, France (7560): Température de l'air & dewpoint: 16.08.2018 01:00:00 - 22.08.2018 01:00:00 (CEST)Mont Aigoual, France (7560): Vitesse du vent & gusts: 16.08.2018 01:00:00 - 22.08.2018 01:00:00 (CEST)Mont Aigoual, France (7560): Direction du vent: 16.08.2018 01:00:00 - 22.08.2018 01:00:00 (CEST)Mont Aigoual, France (7560): visibility: 16.08.2018 01:00:00 - 22.08.2018 01:00:00 (CEST)Mont Aigoual, France (7560): Quantités de précipitations: 16.08.2018 01:00:00 - 22.08.2018 01:00:00 (CEST)
Date & Time tt [°C] td [°C] ff [km/h] ff [knt] fx [km/h] fx [knt] dd vv [km] rr [mm]
22.08.2018 01:00:00 16,9 10,3 8 5 11 6 SSE 20 0,0
22.08.2018 00:00:00 17,1 10,2 6 3 14 8 SE 20 0,0
21.08.2018 23:00:00 17,3 10,9 11 6 22 12 SSW 20 0,0
21.08.2018 22:00:00 17,8 10,7 11 6 23 13 S 20 0,0
21.08.2018 21:00:00 18,2 10,8 10 6 21 11 ESE 20 0,0
21.08.2018 20:00:00 19,4 12,2 5 3 19 10 W 20 0,0
21.08.2018 19:00:00 20,2 10,6 16 8 29 16 S 20 0,0
21.08.2018 18:00:00 20,9 11,5 22 12 41 22 S 20 0,0
21.08.2018 17:00:00 21,6 11,9 19 10 44 24 SSW 20 0,0
21.08.2018 16:00:00 20,1 12,1 16 9 40 22 S 20 0,0
21.08.2018 15:00:00 20,6 11,8 19 10 46 25 SSE - 0,0
21.08.2018 14:00:00 20,5 11,9 17 9 39 21 SSE 19 0,0
21.08.2018 13:00:00 20,4 12,1 11 6 32 17 SSE 20 0,0
21.08.2018 12:00:00 18,4 11,9 13 7 26 14 NE 20 0,0
21.08.2018 11:00:00 17,5 11,5 15 8 32 17 NE 20 0,0
21.08.2018 10:00:00 17,0 11,5 16 9 31 17 NE 20 0,0
21.08.2018 09:00:00 16,4 10,7 12 6 31 17 NNE 20 0,0
21.08.2018 08:00:00 15,8 10,1 24 13 31 17 NNE 20 0,0
21.08.2018 07:00:00 15,1 9,9 19 11 25 14 NE 20 0,0
21.08.2018 06:00:00 14,9 8,8 4 2 12 7 E 20 0,0
21.08.2018 05:00:00 14,9 9,0 9 5 17 9 NNW 20 0,0
21.08.2018 04:00:00 15,1 8,1 6 3 13 7 W 20 0,0
21.08.2018 03:00:00 15,3 8,1 11 6 22 12 N 20 0,0
21.08.2018 02:00:00 15,2 8,4 16 9 37 20 N 20 0,0
21.08.2018 01:00:00 14,7 9,3 28 15 39 21 N 20 0,0
21.08.2018 00:00:00 15,3 10,1 33 18 46 25 N 20 0,0
20.08.2018 23:00:00 15,4 10,8 28 15 39 21 N 20 0,0
20.08.2018 22:00:00 16,4 11,1 31 17 41 22 N 20 0,0
20.08.2018 21:00:00 17,1 10,5 29 16 37 20 N 20 0,0
20.08.2018 20:00:00 18,5 9,8 24 13 30 16 N 20 0,0
20.08.2018 19:00:00 19,5 8,8 24 13 33 18 N 20 0,0
20.08.2018 18:00:00 19,9 8,6 23 12 40 21 N 20 0,0
20.08.2018 17:00:00 20,5 9,4 20 11 31 17 N 20 0,0
20.08.2018 16:00:00 20,4 8,7 16 8 24 13 N 20 0,0
20.08.2018 15:00:00 19,9 8,6 13 7 26 14 N 20 0,0
20.08.2018 14:00:00 19,8 8,5 11 6 23 13 N 14 0,0
20.08.2018 13:00:00 18,9 7,9 11 6 23 12 NNE 15 0,0
20.08.2018 12:00:00 17,7 7,7 9 5 26 14 NNE 20 0,0
20.08.2018 11:00:00 16,8 8,2 12 6 18 10 N 20 0,0
20.08.2018 10:00:00 16,0 8,5 4 2 12 7 NNW 20 0,0
20.08.2018 09:00:00 14,7 7,0 11 6 26 14 N 19 0,0
20.08.2018 08:00:00 14,0 5,6 18 10 27 15 N 20 0,0
20.08.2018 07:00:00 13,6 3,6 16 9 23 13 N 20 0,0
20.08.2018 06:00:00 13,2 5,1 16 9 20 11 NNW 20 0,0
20.08.2018 05:00:00 13,9 4,7 13 7 40 22 N 20 0,0
20.08.2018 04:00:00 13,5 4,9 34 18 60 32 N 20 0,0
20.08.2018 03:00:00 14,1 6,0 49 26 64 35 N 20 0,0
20.08.2018 02:00:00 14,1 6,4 46 25 63 34 N 20 0,0
20.08.2018 01:00:00 14,0 6,6 44 24 61 33 N 20 0,0
20.08.2018 00:00:00 14,0 8,0 47 26 63 34 N 20 0,0
19.08.2018 23:00:00 14,9 8,8 47 25 61 33 N 20 0,0
19.08.2018 22:00:00 15,2 10,4 41 22 51 28 N 20 0,0
19.08.2018 21:00:00 16,0 11,6 37 20 48 26 NNW 20 0,0
19.08.2018 20:00:00 17,9 11,2 19 10 30 16 N 20 0,0
19.08.2018 19:00:00 18,5 11,1 12 6 24 13 N 20 0,0
19.08.2018 18:00:00 18,8 10,4 13 7 25 13 N 20 0,0
19.08.2018 17:00:00 19,3 10,8 18 10 27 14 N 20 0,0
19.08.2018 16:00:00 19,1 10,6 14 7 23 12 N 20 0,0
19.08.2018 15:00:00 18,6 10,4 6 3 16 9 NNE 20 0,0
19.08.2018 14:00:00 17,9 10,8 7 4 19 10 N 20 0,0
19.08.2018 13:00:00 18,2 11,3 4 2 19 10 S 18 0,0
19.08.2018 12:00:00 17,0 10,8 9 5 22 12 N 20 0,0
19.08.2018 11:00:00 16,5 9,9 9 5 17 9 NE 20 0,0
19.08.2018 10:00:00 15,5 11,5 8 4 14 8 N 15 0,0
19.08.2018 09:00:00 14,7 9,7 3 2 7 4 NNE 20 0,0
19.08.2018 08:00:00 13,6 8,2 5 3 10 5 SW 20 0,0
19.08.2018 07:00:00 13,4 8,2 6 3 9 5 SSE 20 0,0
19.08.2018 06:00:00 13,4 7,4 4 2 7 4 NNE 20 0,0
19.08.2018 05:00:00 13,5 7,9 5 3 6 4 NNW 20 0,0
19.08.2018 04:00:00 13,2 7,8 2 1 5 3 E 20 0,0
19.08.2018 03:00:00 13,2 7,6 3 2 6 4 NNE 20 0,0
19.08.2018 02:00:00 13,0 7,9 7 4 23 13 NNW 20 0,0
19.08.2018 01:00:00 12,8 8,5 22 12 27 14 N 20 0,0
19.08.2018 00:00:00 13,1 9,0 21 12 26 14 N 20 0,0
18.08.2018 23:00:00 13,1 9,5 22 12 36 19 N 20 0,0
18.08.2018 22:00:00 13,2 10,0 25 14 35 19 N 20 0,0
18.08.2018 21:00:00 14,0 10,2 25 14 37 20 N 20 0,0
18.08.2018 20:00:00 14,8 10,6 29 16 37 20 N 20 0,0
18.08.2018 19:00:00 15,6 11,0 25 14 34 19 N 20 0,0
18.08.2018 18:00:00 17,1 11,6 20 11 31 17 N 20 -
18.08.2018 17:00:00 16,8 12,1 17 9 28 15 N 20 0,0
18.08.2018 16:00:00 16,0 12,0 16 9 29 16 NNE 20 0,0
18.08.2018 15:00:00 15,6 12,0 13 7 23 12 NNE 20 0,0
18.08.2018 14:00:00 15,2 11,6 9 5 20 11 NNE 17 0,0
18.08.2018 13:00:00 14,9 11,5 9 5 24 13 N 15 0,0
18.08.2018 12:00:00 14,7 11,7 13 7 25 14 N 20 0,0
18.08.2018 11:00:00 13,5 11,0 16 8 30 16 N 20 0,0
18.08.2018 10:00:00 13,0 10,9 19 10 32 17 N 18 0,0
18.08.2018 09:00:00 11,5 10,9 22 12 34 19 N 20 0,0
18.08.2018 08:00:00 10,5 10,5 31 17 40 22 N 17 0,0
18.08.2018 07:00:00 10,0 10,0 29 16 45 24 N 0,1 0,0
18.08.2018 06:00:00 10,0 10,0 35 19 48 26 N 0,1 0,0
18.08.2018 05:00:00 10,4 10,4 33 18 45 24 NNW 0,1 0,0
18.08.2018 04:00:00 10,6 10,6 32 17 44 24 N 0,1 0,0
18.08.2018 03:00:00 10,7 10,7 35 19 45 24 NNW 0,1 0,0
18.08.2018 02:00:00 10,6 10,6 31 17 43 23 NW 0,1 0,2
18.08.2018 01:00:00 10,6 10,6 34 18 46 25 NW 0,1 0,0
18.08.2018 00:00:00 10,5 10,5 29 16 46 25 NW 0,1 0,0
17.08.2018 23:00:00 10,8 10,8 36 19 46 25 NW 0,1 0,0
17.08.2018 22:00:00 10,9 10,9 35 19 55 30 NNW 0,8 0,0
17.08.2018 21:00:00 11,0 11,0 38 20 54 29 NNW 0,3 0,0
17.08.2018 20:00:00 11,8 11,8 37 20 61 33 NNW 0,1 0,0
17.08.2018 19:00:00 12,0 12,0 41 22 56 30 NW 0,1 0,0
17.08.2018 18:00:00 12,8 12,5 35 19 50 27 NW 0,7 0,0
17.08.2018 17:00:00 13,0 11,9 36 20 57 31 N 20 0,0
17.08.2018 16:00:00 11,9 11,9 43 23 57 31 NNW 0,1 0,0
17.08.2018 15:00:00 12,2 12,2 41 22 53 29 NW 0,1 0,2
17.08.2018 14:00:00 12,0 12,0 41 22 63 34 NW 0,3 0,0
17.08.2018 13:00:00 12,0 12,0 47 25 62 33 NW - 0,0
17.08.2018 12:00:00 12,5 12,5 40 22 50 27 NW - 0,0
17.08.2018 11:00:00 13,2 13,2 38 20 46 25 NW - 0,0
17.08.2018 10:00:00 13,1 12,9 35 19 45 24 NW 0,5 0,0
17.08.2018 09:00:00 13,1 12,9 35 19 45 24 NW 0,9 0,0
17.08.2018 08:00:00 13,2 12,4 35 19 40 22 NW 18 0,0
17.08.2018 07:00:00 12,6 12,6 32 17 42 23 NW 0,2 0,0
17.08.2018 06:00:00 12,8 12,2 32 17 38 20 NW 12 0,0
17.08.2018 05:00:00 13,6 12,2 30 16 40 22 NW 20 0,0
17.08.2018 04:00:00 13,8 12,2 30 16 41 22 NW 20 0,0
17.08.2018 03:00:00 13,9 12,3 31 17 36 19 NW 20 0,0
17.08.2018 02:00:00 14,3 12,3 27 15 35 19 NW 20 0,0
17.08.2018 01:00:00 15,0 11,8 27 15 33 18 NW 20 0,0
17.08.2018 00:00:00 15,3 11,7 20 11 34 19 NW 20 0,0
16.08.2018 23:00:00 15,1 12,4 24 13 32 17 NW 20 0,0
16.08.2018 22:00:00 15,7 11,9 21 11 28 15 WSW 20 0,0
16.08.2018 21:00:00 15,6 12,3 16 8 25 13 SW 20 0,0
16.08.2018 20:00:00 16,6 12,5 15 8 34 19 S 20 0,0
16.08.2018 19:00:00 18,0 12,4 29 16 38 20 S 20 0,0
16.08.2018 18:00:00 19,0 11,8 21 11 37 20 S 20 0,0
16.08.2018 17:00:00 19,5 12,0 18 10 35 19 S 20 0,0
16.08.2018 16:00:00 19,4 11,9 19 10 42 23 S 20 0,0
16.08.2018 15:00:00 19,3 12,6 22 12 37 20 S 19 0,0
16.08.2018 14:00:00 18,7 12,7 20 11 34 18 S 20 0,0
16.08.2018 13:00:00 17,8 12,0 17 9 36 19 S 20 0,0
16.08.2018 12:00:00 17,0 11,7 16 9 29 16 S 20 0,0
16.08.2018 11:00:00 16,2 11,8 11 6 28 15 S 20 0,0
16.08.2018 10:00:00 15,2 11,8 9 5 23 13 E 20 0,0
16.08.2018 09:00:00 14,1 10,9 15 8 28 15 NE 20 0,0
16.08.2018 08:00:00 13,7 10,5 14 8 19 10 NNE 20 0,0
16.08.2018 07:00:00 12,9 10,1 12 6 22 12 NNE 20 0,0
16.08.2018 06:00:00 13,1 9,9 14 8 18 10 NNE 20 0,0
16.08.2018 05:00:00 13,3 9,0 10 6 16 9 NE 20 0,0
16.08.2018 04:00:00 13,5 10,1 13 7 17 9 SE 20 0,0
16.08.2018 03:00:00 13,9 10,5 8 5 9 5 SE 20 0,0
16.08.2018 02:00:00 14,3 10,9 4 2 11 6 ENE 20 0,0
16.08.2018 01:00:00 14,7 10,7 8 5 10 5 N 20 0,0

tt = Température de l'air
td = dewpoint
ff = Vitesse du vent
fx = gusts
dd = Direction du vent
vv = visibility
rr = Quantités de précipitations

stations d'obs. à proximité